Time;durP1;ratioP1;P1;durP2;ratioP2;P2;SDS_P1;SDS_P2;PMS_P1;PMS_P2;Temp;Humidity;BMP_temperature;BMP_pressure;BME280_temperature;BME280_humidity;BME280_pressure;Samples;Min_cycle;Max_cycle;Signal;HPM_P1;HPM_P2
2021/12/23 00:00:01;;;;;;;34.95;26.98;;;8.10;73.50;;;;;;5092713;28;20016;-65
2021/12/23 00:02:26;;;;;;;39.50;28.45;;;8.10;73.70;;;;;;5092954;28;20111;-65
2021/12/23 00:04:52;;;;;;;36.90;29.10;;;8.20;73.60;;;;;;5092874;28;20012;-65
2021/12/23 00:07:17;;;;;;;34.20;26.63;;;8.10;73.60;;;;;;5093101;28;20363;-64
2021/12/23 00:12:17;;;;;;;40.38;30.33;;;8.10;73.60;;;;;;5092977;28;20363;-65
2021/12/23 00:14:45;;;;;;;40.03;29.83;;;8.10;73.70;;;;;;5092671;28;20047;-64
2021/12/23 00:17:26;;;;;;;36.35;28.10;;;8.00;73.70;;;;;;5089579;28;20104;-64
2021/12/23 00:25:28;;;;;;;41.83;29.45;;;8.10;73.70;;;;;;5092432;28;20450;-64
2021/12/23 00:27:53;;;;;;;40.70;28.23;;;8.10;73.70;;;;;;5092746;28;20098;-65
2021/12/23 00:30:19;;;;;;;40.15;30.17;;;8.10;73.80;;;;;;5090667;28;20032;-65
2021/12/23 00:32:45;;;;;;;38.42;28.30;;;8.10;73.90;;;;;;5088309;28;20461;-65
2021/12/23 00:35:10;;;;;;;38.63;27.88;;;8.00;73.70;;;;;;5092540;28;20020;-64
2021/12/23 00:37:41;;;;;;;41.17;29.48;;;8.00;73.80;;;;;;5092764;28;20025;-63
2021/12/23 00:40:09;;;;;;;38.10;26.92;;;8.00;74.00;;;;;;5092942;28;20140;-64
2021/12/23 00:42:34;;;;;;;39.25;29.25;;;8.00;74.20;;;;;;5090524;28;20032;-65
2021/12/23 00:45:00;;;;;;;40.88;29.40;;;8.00;74.30;;;;;;5091587;28;20024;-64
2021/12/23 00:47:26;;;;;;;41.03;29.92;;;8.00;74.00;;;;;;5095686;28;20028;-64
2021/12/23 00:49:52;;;;;;;39.28;29.35;;;8.00;73.90;;;;;;5095953;28;20027;-64
2021/12/23 00:52:24;;;;;;;40.65;28.65;;;8.00;74.10;;;;;;5096407;28;20434;-65
2021/12/23 00:54:49;;;;;;;40.88;29.83;;;8.00;74.20;;;;;;5095971;28;20020;-65
2021/12/23 00:57:15;;;;;;;42.40;29.67;;;7.90;74.10;;;;;;5095980;28;20088;-63
2021/12/23 00:59:41;;;;;;;38.22;28.77;;;7.90;74.10;;;;;;5096030;28;20054;-65
2021/12/23 01:02:08;;;;;;;38.75;28.95;;;7.90;74.40;;;;;;5095959;28;20032;-64
2021/12/23 01:04:34;;;;;;;37.35;28.17;;;7.90;74.70;;;;;;5096058;28;20012;-65
2021/12/23 01:06:59;;;;;;;41.70;29.40;;;8.00;74.40;;;;;;5095813;28;20382;-65
2021/12/23 01:09:25;;;;;;;39.72;29.23;;;7.90;74.40;;;;;;5094613;28;20374;-64
2021/12/23 01:11:51;;;;;;;39.63;29.38;;;7.90;74.50;;;;;;5095591;28;20032;-64
2021/12/23 01:17:10;;;;;;;42.03;29.60;;;7.90;74.60;;;;;;5095591;28;20538;-64
2021/12/23 01:19:39;;;;;;;42.50;29.97;;;7.90;74.50;;;;;;5095553;28;20055;-65
2021/12/23 01:22:06;;;;;;;40.95;28.45;;;7.80;74.60;;;;;;5095610;28;20297;-64
2021/12/23 01:24:33;;;;;;;42.10;28.70;;;7.90;74.90;;;;;;5095588;28;20055;-64
2021/12/23 01:27:00;;;;;;;42.63;31.10;;;7.90;74.90;;;;;;5095265;28;20061;-64
2021/12/23 01:29:26;;;;;;;40.88;29.30;;;7.90;75.00;;;;;;5095541;28;20020;-65
2021/12/23 01:31:51;;;;;;;40.92;28.92;;;7.90;75.00;;;;;;5095323;28;20454;-64
2021/12/23 01:34:17;;;;;;;41.40;28.60;;;7.90;74.90;;;;;;5095731;28;20042;-65
2021/12/23 01:36:42;;;;;;;41.22;28.35;;;7.90;74.90;;;;;;5095181;28;20015;-65
2021/12/23 01:39:08;;;;;;;43.55;29.25;;;7.90;75.00;;;;;;5095344;28;20070;-65
2021/12/23 01:41:34;;;;;;;40.92;28.20;;;7.90;75.00;;;;;;5094735;28;20032;-64
2021/12/23 01:43:59;;;;;;;36.45;27.02;;;7.80;75.00;;;;;;5095195;28;20036;-64
2021/12/23 01:46:25;;;;;;;44.40;29.27;;;7.80;75.10;;;;;;5095246;28;20156;-65
2021/12/23 01:48:52;;;;;;;40.97;29.35;;;7.90;75.10;;;;;;5094943;28;20031;-64
2021/12/23 01:51:18;;;;;;;40.33;28.58;;;7.90;75.00;;;;;;5095128;28;20533;-65
2021/12/23 01:53:44;;;;;;;39.83;27.27;;;7.80;75.10;;;;;;5095068;28;20158;-65
2021/12/23 01:56:10;;;;;;;44.88;29.38;;;7.90;75.30;;;;;;5094624;28;20020;-65
2021/12/23 01:58:38;;;;;;;40.80;28.52;;;7.80;75.10;;;;;;5094061;28;20473;-65
2021/12/23 02:01:04;;;;;;;39.28;27.52;;;7.80;75.10;;;;;;5094933;28;20113;-65
2021/12/23 02:03:30;;;;;;;39.97;28.77;;;7.80;75.30;;;;;;5094881;28;20111;-65
2021/12/23 02:05:56;;;;;;;41.42;29.27;;;7.80;75.40;;;;;;5094739;28;20165;-64
2021/12/23 02:08:21;;;;;;;38.47;28.75;;;7.80;75.30;;;;;;5094912;28;20024;-64
2021/12/23 02:10:47;;;;;;;40.08;27.75;;;7.80;75.50;;;;;;5094462;28;20043;-66
2021/12/23 02:13:12;;;;;;;40.53;28.05;;;7.80;75.40;;;;;;5094407;28;20042;-64
2021/12/23 02:15:38;;;;;;;38.63;26.88;;;7.80;75.40;;;;;;5094658;28;20052;-64
2021/12/23 02:18:04;;;;;;;38.35;28.25;;;7.80;75.30;;;;;;5094567;28;20032;-64
2021/12/23 02:20:33;;;;;;;40.58;27.92;;;7.80;75.60;;;;;;5094524;28;20020;-64
2021/12/23 02:22:59;;;;;;;39.80;28.38;;;7.80;75.50;;;;;;5094465;28;20111;-63
2021/12/23 02:25:25;;;;;;;39.83;26.35;;;7.80;75.60;;;;;;5094515;28;20066;-64
2021/12/23 02:27:52;;;;;;;39.28;28.15;;;7.80;75.70;;;;;;5094130;28;20028;-65
2021/12/23 02:30:22;;;;;;;39.00;27.63;;;7.80;76.30;;;;;;5094632;28;20024;-60
2021/12/23 02:32:47;;;;;;;41.38;28.80;;;7.70;75.80;;;;;;5094322;28;20035;-64
2021/12/23 02:35:15;;;;;;;37.33;26.05;;;7.80;76.00;;;;;;5093585;28;20016;-62
2021/12/23 02:37:42;;;;;;;37.08;26.38;;;7.70;76.00;;;;;;5094045;28;20035;-61
2021/12/23 02:40:09;;;;;;;38.85;27.95;;;7.80;75.90;;;;;;5093850;28;20012;-64
2021/12/23 02:42:35;;;;;;;39.05;26.63;;;7.70;75.80;;;;;;5093944;28;20044;-64
2021/12/23 02:45:04;;;;;;;42.42;27.45;;;7.70;75.90;;;;;;5094176;28;20024;-60
2021/12/23 02:47:31;;;;;;;39.13;27.58;;;7.70;76.00;;;;;;5094182;28;20039;-64
2021/12/23 02:49:57;;;;;;;40.03;27.98;;;7.70;75.90;;;;;;5094012;28;20397;-65
2021/12/23 02:52:22;;;;;;;39.67;27.83;;;7.70;76.20;;;;;;5093745;28;20504;-64
2021/12/23 02:54:58;;;;;;;38.95;26.95;;;7.70;76.20;;;;;;5093646;28;20485;-62
2021/12/23 02:57:24;;;;;;;37.15;25.95;;;7.70;76.10;;;;;;5093972;28;20024;-65
2021/12/23 02:59:50;;;;;;;39.63;28.20;;;7.60;76.20;;;;;;5093850;28;20027;-63
2021/12/23 03:02:15;;;;;;;40.65;27.95;;;7.60;76.20;;;;;;5093612;28;20044;-64
2021/12/23 03:04:41;;;;;;;40.40;26.85;;;7.60;76.20;;;;;;5093620;28;20024;-65
2021/12/23 03:07:06;;;;;;;39.15;26.70;;;7.60;76.20;;;;;;5093645;28;20036;-60
2021/12/23 03:09:32;;;;;;;40.35;26.92;;;7.60;76.20;;;;;;5093019;28;20012;-64
2021/12/23 03:11:58;;;;;;;37.85;27.33;;;7.60;76.40;;;;;;5086966;28;20482;-61
2021/12/23 03:14:23;;;;;;;42.40;28.00;;;7.60;76.70;;;;;;5073007;28;20494;-64
2021/12/23 03:16:50;;;;;;;39.15;27.42;;;7.60;76.70;;;;;;5072514;28;20520;-60
2021/12/23 03:19:15;;;;;;;40.88;27.02;;;7.50;76.60;;;;;;5073039;28;20077;-64
2021/12/23 03:21:44;;;;;;;41.65;27.85;;;7.50;76.80;;;;;;5073144;28;20104;-64
2021/12/23 03:24:10;;;;;;;40.17;28.05;;;7.60;76.70;;;;;;5072735;28;20523;-61
2021/12/23 03:26:36;;;;;;;40.42;28.85;;;7.60;76.70;;;;;;5073223;28;20392;-64
2021/12/23 03:29:03;;;;;;;40.60;29.20;;;7.50;76.90;;;;;;5073011;28;20465;-64
2021/12/23 03:31:28;;;;;;;40.78;27.90;;;7.50;76.80;;;;;;5073092;28;20499;-64
2021/12/23 03:33:54;;;;;;;42.45;28.17;;;7.50;77.00;;;;;;5072862;28;20052;-64
2021/12/23 03:36:19;;;;;;;39.45;27.48;;;7.50;77.00;;;;;;5072976;28;20040;-64
2021/12/23 03:38:45;;;;;;;39.15;28.15;;;7.50;76.80;;;;;;5072729;28;20028;-65
2021/12/23 03:41:11;;;;;;;39.33;27.45;;;7.60;77.00;;;;;;5073005;28;20020;-64
2021/12/23 03:43:36;;;;;;;38.67;26.95;;;7.50;76.90;;;;;;5073058;28;20078;-64
2021/12/23 03:46:02;;;;;;;37.75;26.70;;;7.50;76.90;;;;;;5072959;28;20074;-64
2021/12/23 03:48:28;;;;;;;42.60;29.25;;;7.50;76.90;;;;;;5072715;28;20033;-63
2021/12/23 03:50:53;;;;;;;40.60;27.90;;;7.50;76.90;;;;;;5072981;28;20023;-65
2021/12/23 03:53:19;;;;;;;40.25;27.73;;;7.50;77.10;;;;;;5072601;28;20025;-64
2021/12/23 03:55:46;;;;;;;40.85;27.60;;;7.40;77.10;;;;;;5072979;28;20235;-64
2021/12/23 03:58:11;;;;;;;41.47;28.08;;;7.40;77.30;;;;;;5072988;28;20497;-64
2021/12/23 04:00:37;;;;;;;39.22;27.25;;;7.40;77.30;;;;;;5072767;28;20025;-66
2021/12/23 04:03:03;;;;;;;39.10;27.55;;;7.40;77.50;;;;;;5072760;28;20029;-61
2021/12/23 04:05:29;;;;;;;40.70;28.20;;;7.40;77.50;;;;;;5072848;28;20066;-65
2021/12/23 04:07:54;;;;;;;39.75;27.35;;;7.30;77.50;;;;;;5072423;28;20428;-64
2021/12/23 04:10:23;;;;;;;39.47;26.98;;;7.40;77.50;;;;;;5072715;28;20458;-65
2021/12/23 04:12:51;;;;;;;44.80;30.00;;;7.40;77.50;;;;;;5072752;28;20032;-64
2021/12/23 04:15:17;;;;;;;44.63;29.58;;;7.30;76.90;;;;;;5072727;28;20025;-64
2021/12/23 04:17:43;;;;;;;43.38;29.73;;;6.40;78.70;;;;;;5072870;28;20021;-64
2021/12/23 04:20:16;;;;;;;44.75;28.67;;;5.80;81.10;;;;;;5072184;28;20017;-62
2021/12/23 04:22:44;;;;;;;49.28;31.20;;;5.30;83.00;;;;;;5076640;28;20060;-63
2021/12/23 04:25:11;;;;;;;49.38;31.42;;;5.00;84.60;;;;;;5076466;28;20021;-63
2021/12/23 04:27:37;;;;;;;48.72;30.55;;;4.80;85.90;;;;;;5076475;28;20063;-65
2021/12/23 04:30:07;;;;;;;47.88;29.27;;;4.70;86.60;;;;;;5076264;28;20024;-64
2021/12/23 04:32:32;;;;;;;47.70;30.17;;;4.60;87.00;;;;;;5076542;28;20016;-61
2021/12/23 04:34:58;;;;;;;45.17;29.77;;;4.60;87.20;;;;;;5075912;28;20192;-64
2021/12/23 04:37:23;;;;;;;44.55;29.40;;;4.50;87.70;;;;;;5076252;28;20033;-62
2021/12/23 04:39:49;;;;;;;47.58;29.60;;;4.40;88.40;;;;;;5076133;28;20497;-61
2021/12/23 04:42:14;;;;;;;51.13;31.63;;;4.40;88.70;;;;;;5075842;28;20478;-60
2021/12/23 04:44:40;;;;;;;47.10;30.70;;;4.30;89.20;;;;;;5076129;28;20025;-64
2021/12/23 04:47:06;;;;;;;50.55;29.80;;;4.30;89.10;;;;;;5076092;28;20112;-64
2021/12/23 04:49:31;;;;;;;51.15;30.52;;;4.30;89.60;;;;;;5075637;28;20082;-65
2021/12/23 04:51:57;;;;;;;45.75;28.63;;;4.20;90.00;;;;;;5076041;28;20111;-64
2021/12/23 04:54:22;;;;;;;49.15;30.98;;;4.20;90.00;;;;;;5075860;28;20024;-64
2021/12/23 04:56:48;;;;;;;48.30;29.08;;;4.20;90.10;;;;;;5075968;28;20021;-62
2021/12/23 04:59:13;;;;;;;47.33;29.08;;;4.10;90.20;;;;;;5075829;28;20377;-62
2021/12/23 05:01:39;;;;;;;49.63;30.38;;;4.10;90.30;;;;;;5075726;28;20033;-64
2021/12/23 05:04:05;;;;;;;52.30;31.33;;;4.10;90.50;;;;;;5075357;28;20024;-61
2021/12/23 05:06:30;;;;;;;46.30;29.80;;;4.10;90.50;;;;;;5075693;28;20056;-64
2021/12/23 05:08:56;;;;;;;48.70;29.50;;;4.10;90.60;;;;;;5075649;28;20028;-63
2021/12/23 05:11:22;;;;;;;48.47;30.15;;;4.10;90.70;;;;;;5075509;28;20025;-61
2021/12/23 05:13:48;;;;;;;45.40;28.15;;;4.00;90.70;;;;;;5075648;28;20039;-64
2021/12/23 05:16:15;;;;;;;45.60;28.65;;;4.10;90.70;;;;;;5075409;28;20103;-65
2021/12/23 05:18:41;;;;;;;47.33;28.63;;;4.00;90.80;;;;;;5075246;28;20542;-64
2021/12/23 05:21:06;;;;;;;48.50;29.50;;;4.00;90.80;;;;;;5075246;28;20099;-64
2021/12/23 05:23:32;;;;;;;47.15;29.10;;;4.00;91.00;;;;;;5075381;28;20489;-64
2021/12/23 05:25:58;;;;;;;47.20;29.92;;;4.00;91.00;;;;;;5075396;28;20009;-63
2021/12/23 05:28:24;;;;;;;48.83;28.45;;;3.90;91.20;;;;;;5075269;28;20035;-63
2021/12/23 05:30:50;;;;;;;44.80;29.23;;;4.00;91.20;;;;;;5075278;28;20017;-61
2021/12/23 05:33:15;;;;;;;52.13;30.73;;;3.90;91.40;;;;;;5073680;28;20469;-60
2021/12/23 05:35:41;;;;;;;48.35;29.38;;;3.90;91.40;;;;;;5075278;28;20021;-59
2021/12/23 05:38:07;;;;;;;44.75;28.98;;;3.90;91.40;;;;;;5075367;28;20052;-58
2021/12/23 05:40:34;;;;;;;48.97;30.05;;;3.90;91.50;;;;;;5075057;28;20024;-60
2021/12/23 05:43:00;;;;;;;48.25;28.50;;;3.90;91.70;;;;;;5074748;28;20387;-59
2021/12/23 05:45:26;;;;;;;48.95;29.38;;;3.80;91.60;;;;;;5075079;28;20032;-59
2021/12/23 05:47:52;;;;;;;46.92;27.85;;;3.90;91.70;;;;;;5074629;28;20392;-58
2021/12/23 05:50:19;;;;;;;46.75;28.55;;;3.90;91.80;;;;;;5075110;28;20040;-58
2021/12/23 05:52:44;;;;;;;48.28;28.20;;;3.80;91.90;;;;;;5075018;28;20032;-58
2021/12/23 05:55:12;;;;;;;49.65;30.27;;;3.80;92.10;;;;;;5074894;28;20378;-63
2021/12/23 05:57:38;;;;;;;47.47;29.13;;;3.90;91.80;;;;;;5074752;28;20055;-64
2021/12/23 06:00:16;;;;;;;46.25;28.23;;;3.90;91.90;;;;;;5074589;28;20055;-63
2021/12/23 06:02:42;;;;;;;50.30;30.63;;;3.90;92.10;;;;;;5076266;28;20040;-62
2021/12/23 06:05:08;;;;;;;49.33;28.92;;;3.90;92.00;;;;;;5074344;28;20081;-64
2021/12/23 06:07:34;;;;;;;47.90;29.10;;;3.90;92.10;;;;;;5074097;28;20033;-64
2021/12/23 06:09:59;;;;;;;48.95;28.85;;;3.90;92.10;;;;;;5074588;28;20025;-63
2021/12/23 06:12:26;;;;;;;48.08;29.70;;;3.90;92.20;;;;;;5074430;28;20036;-65
2021/12/23 06:14:52;;;;;;;54.47;30.55;;;3.90;92.20;;;;;;5074263;28;20025;-64
2021/12/23 06:17:18;;;;;;;46.83;29.63;;;3.80;92.30;;;;;;5073696;28;20039;-63
2021/12/23 06:19:43;;;;;;;47.08;28.92;;;3.80;92.40;;;;;;5074346;28;20382;-64
2021/12/23 06:22:09;;;;;;;46.20;28.55;;;3.90;92.40;;;;;;5074325;28;20501;-64
2021/12/23 06:24:35;;;;;;;49.90;28.83;;;3.90;92.30;;;;;;5074277;28;20017;-63
2021/12/23 06:27:00;;;;;;;49.85;30.33;;;3.90;92.40;;;;;;5073993;28;20025;-63
2021/12/23 06:29:26;;;;;;;48.80;30.40;;;3.90;92.40;;;;;;5074115;28;20028;-64
2021/12/23 06:31:51;;;;;;;52.70;31.05;;;3.90;92.50;;;;;;5074009;28;20047;-62
2021/12/23 06:34:17;;;;;;;52.47;31.85;;;3.90;92.50;;;;;;5074005;28;20025;-63
2021/12/23 06:36:44;;;;;;;49.42;29.50;;;3.90;92.50;;;;;;5074077;28;20039;-65
2021/12/23 06:39:09;;;;;;;47.00;28.60;;;3.90;92.50;;;;;;5074035;28;20016;-60
2021/12/23 06:41:35;;;;;;;47.55;28.23;;;3.90;92.80;;;;;;5073565;28;20043;-64
2021/12/23 06:44:00;;;;;;;49.50;29.77;;;3.90;92.60;;;;;;5073357;28;20039;-59
2021/12/23 06:46:26;;;;;;;50.15;29.52;;;3.80;92.60;;;;;;5073732;28;20040;-64
2021/12/23 06:48:52;;;;;;;46.83;29.15;;;3.90;92.60;;;;;;5073513;28;20069;-64
2021/12/23 06:51:17;;;;;;;48.20;30.27;;;3.90;92.70;;;;;;5073645;28;20028;-61
2021/12/23 06:53:43;;;;;;;51.45;30.05;;;3.90;92.90;;;;;;5073602;28;20423;-64
2021/12/23 06:56:11;;;;;;;49.30;30.38;;;3.90;92.80;;;;;;5073763;28;20024;-61
2021/12/23 06:58:38;;;;;;;46.15;29.33;;;3.90;92.90;;;;;;5073407;28;20032;-62
2021/12/23 07:01:04;;;;;;;49.30;29.60;;;3.90;92.90;;;;;;5073223;28;20155;-60
2021/12/23 07:03:48;;;;;;;46.28;29.98;;;3.90;92.90;;;;;;5073258;28;20119;-64
2021/12/23 07:06:18;;;;;;;41.25;26.85;;;3.90;93.10;;;;;;5076809;28;20024;-64
2021/12/23 07:08:44;;;;;;;41.00;26.42;;;4.20;93.80;;;;;;5081591;28;20039;-62
2021/12/23 07:11:10;;;;;;;43.40;28.42;;;4.80;92.00;;;;;;5078680;28;20024;-64
2021/12/23 07:13:35;;;;;;;43.85;26.98;;;5.10;91.10;;;;;;5072003;28;20516;-62
2021/12/23 07:16:02;;;;;;;41.70;27.50;;;5.40;90.50;;;;;;5076879;28;20066;-63
2021/12/23 07:18:28;;;;;;;40.95;27.60;;;5.50;90.10;;;;;;5079438;28;20394;-61
2021/12/23 07:20:53;;;;;;;45.97;27.58;;;5.60;90.00;;;;;;5076178;28;20118;-63
2021/12/23 07:23:19;;;;;;;42.78;26.67;;;5.80;89.60;;;;;;5072651;28;20497;-62
2021/12/23 07:25:44;;;;;;;43.03;27.83;;;5.90;89.10;;;;;;5079228;28;20089;-63
2021/12/23 07:28:10;;;;;;;40.28;26.48;;;5.90;88.80;;;;;;5081962;28;20109;-63
2021/12/23 07:30:35;;;;;;;42.95;26.85;;;6.00;88.60;;;;;;5077850;28;20774;-63
2021/12/23 07:33:01;;;;;;;43.15;26.60;;;5.90;88.90;;;;;;5084477;28;20069;-64
2021/12/23 07:35:27;;;;;;;48.22;31.67;;;6.00;88.90;;;;;;5082650;28;20077;-60
2021/12/23 07:37:53;;;;;;;46.25;30.65;;;6.00;88.70;;;;;;5091669;28;20089;-62
2021/12/23 07:40:19;;;;;;;49.67;30.17;;;6.10;88.50;;;;;;5090944;28;20024;-62
2021/12/23 07:43:09;;;;;;;40.92;28.23;;;6.20;88.10;;;;;;5091786;28;20389;-61
2021/12/23 07:45:35;;;;;;;41.03;26.52;;;6.30;88.00;;;;;;5075672;28;20028;-64
2021/12/23 07:48:01;;;;;;;39.05;25.80;;;6.30;88.00;;;;;;5090405;28;20468;-64
2021/12/23 07:50:27;;;;;;;38.78;26.13;;;6.30;88.00;;;;;;5091907;28;20079;-61
2021/12/23 07:52:52;;;;;;;38.65;24.00;;;6.30;87.60;;;;;;5087346;28;20473;-64
2021/12/23 07:55:20;;;;;;;39.55;26.08;;;6.30;87.80;;;;;;5084795;28;20032;-66
2021/12/23 07:57:45;;;;;;;48.03;29.83;;;6.40;87.70;;;;;;5088191;28;20049;-64
2021/12/23 08:00:12;;;;;;;57.28;32.72;;;6.40;87.90;;;;;;5083898;28;20025;-63
2021/12/23 08:02:37;;;;;;;48.63;29.60;;;6.50;87.60;;;;;;5091158;28;20083;-64
2021/12/23 08:05:03;;;;;;;43.63;27.08;;;6.50;87.40;;;;;;5084305;28;20025;-63
2021/12/23 08:07:29;;;;;;;32.28;20.77;;;6.60;87.10;;;;;;5090106;28;20782;-62
2021/12/23 08:09:54;;;;;;;39.58;26.23;;;6.50;88.60;;;;;;5082172;28;20486;-63
2021/12/23 08:12:20;;;;;;;36.28;24.85;;;6.60;89.00;;;;;;5080319;28;20098;-63
2021/12/23 08:14:45;;;;;;;36.13;25.67;;;6.60;87.90;;;;;;5078386;28;20736;-60
2021/12/23 08:17:11;;;;;;;39.72;26.10;;;6.70;87.20;;;;;;5084729;28;20055;-62
2021/12/23 08:19:36;;;;;;;40.85;26.25;;;6.60;87.20;;;;;;5083617;28;20031;-58
2021/12/23 08:22:02;;;;;;;41.83;25.45;;;6.70;87.20;;;;;;5080995;28;20047;-65
2021/12/23 08:24:28;;;;;;;38.00;24.42;;;6.70;86.80;;;;;;5080241;28;20028;-63
2021/12/23 08:26:54;;;;;;;38.40;25.73;;;6.70;87.40;;;;;;5083027;28;20028;-63
2021/12/23 08:29:20;;;;;;;38.92;24.20;;;6.80;87.40;;;;;;5091108;28;20016;-63
2021/12/23 08:31:53;;;;;;;40.03;25.23;;;6.80;87.60;;;;;;5085514;28;20478;-61
2021/12/23 08:34:23;;;;;;;37.22;23.98;;;6.90;87.00;;;;;;5076791;28;20039;-63
2021/12/23 08:36:50;;;;;;;38.72;25.73;;;6.90;86.60;;;;;;5086839;28;20021;-63
2021/12/23 08:39:17;;;;;;;38.55;25.42;;;6.90;86.80;;;;;;5078626;28;20035;-62
2021/12/23 08:41:43;;;;;;;36.75;24.83;;;6.90;86.30;;;;;;5078184;28;20511;-61
2021/12/23 08:44:08;;;;;;;38.00;24.30;;;6.90;87.30;;;;;;5079841;28;20032;-62
2021/12/23 08:46:34;;;;;;;35.97;24.58;;;6.90;86.60;;;;;;5074132;28;20056;-62
2021/12/23 08:49:00;;;;;;;39.08;25.58;;;7.00;86.00;;;;;;5074581;28;20426;-60
2021/12/23 08:51:25;;;;;;;37.05;25.00;;;6.90;86.40;;;;;;5081961;28;20500;-60
2021/12/23 08:53:51;;;;;;;39.90;26.73;;;7.00;86.30;;;;;;5081515;28;20498;-61
2021/12/23 08:56:17;;;;;;;38.80;25.27;;;7.00;85.80;;;;;;5076326;28;20093;-62
2021/12/23 08:58:42;;;;;;;40.30;27.35;;;7.00;86.00;;;;;;5082866;28;20125;-61
2021/12/23 09:01:09;;;;;;;41.78;24.90;;;7.00;86.00;;;;;;5075492;28;20101;-63
2021/12/23 09:03:35;;;;;;;36.53;24.35;;;7.00;86.20;;;;;;5079791;28;20040;-62
2021/12/23 09:06:04;;;;;;;34.80;20.35;;;7.00;87.00;;;;;;5077754;28;20024;-62
2021/12/23 09:08:29;;;;;;;34.15;21.55;;;7.10;88.60;;;;;;5079222;28;20028;-61
2021/12/23 09:10:57;;;;;;;34.65;23.63;;;7.20;87.30;;;;;;5081623;28;20026;-61
2021/12/23 09:13:23;;;;;;;37.40;24.40;;;7.20;86.00;;;;;;5082586;28;20016;-59
2021/12/23 09:15:49;;;;;;;36.55;24.70;;;7.20;86.10;;;;;;5081597;28;20116;-61
2021/12/23 09:18:15;;;;;;;30.90;19.75;;;7.20;85.90;;;;;;5079199;28;20020;-58
2021/12/23 09:20:40;;;;;;;36.60;23.73;;;7.20;86.40;;;;;;5078656;28;20478;-62
2021/12/23 09:23:07;;;;;;;35.15;22.73;;;7.30;87.40;;;;;;5078904;28;20048;-63
2021/12/23 09:25:33;;;;;;;30.65;20.77;;;7.30;87.30;;;;;;5074922;28;20027;-62
2021/12/23 09:28:07;;;;;;;38.38;19.42;;;7.50;88.70;;;;;;5077480;28;20024;-63
2021/12/23 09:33:18;;;;;;;28.10;17.35;;;7.80;89.50;;;;;;5077630;28;20043;-63
2021/12/23 09:35:44;;;;;;;52.42;31.70;;;7.90;89.50;;;;;;5082091;28;20036;-62
2021/12/23 09:38:10;;;;;;;36.17;24.17;;;8.00;87.90;;;;;;5078184;28;20032;-62
2021/12/23 09:40:37;;;;;;;35.67;22.60;;;8.00;85.50;;;;;;5081185;28;20044;-62
2021/12/23 09:43:06;;;;;;;27.48;19.42;;;7.90;84.60;;;;;;5080957;28;20221;-62
2021/12/23 09:45:33;;;;;;;26.55;17.65;;;7.90;85.60;;;;;;5085019;28;20027;-63
2021/12/23 09:48:02;;;;;;;30.17;20.65;;;8.20;87.90;;;;;;5079618;28;20027;-62
2021/12/23 09:50:30;;;;;;;27.65;18.35;;;8.30;85.50;;;;;;5083740;28;20020;-62
2021/12/23 09:52:56;;;;;;;33.78;22.50;;;8.30;85.70;;;;;;5073577;28;20039;-62
2021/12/23 09:55:25;;;;;;;32.75;22.40;;;8.30;84.90;;;;;;5079116;28;20032;-62
2021/12/23 09:57:53;;;;;;;33.50;22.15;;;8.30;82.90;;;;;;5083600;28;20032;-63
2021/12/23 10:00:22;;;;;;;31.60;22.08;;;8.30;83.70;;;;;;5086898;28;20017;-63
2021/12/23 10:02:49;;;;;;;31.85;22.30;;;8.20;83.10;;;;;;5084064;28;20089;-62
2021/12/23 10:05:19;;;;;;;31.77;19.98;;;8.20;82.50;;;;;;5081028;28;20512;-61
2021/12/23 10:07:46;;;;;;;28.10;18.08;;;8.20;84.40;;;;;;5078125;28;20529;-61
2021/12/23 10:10:22;;;;;;;25.33;16.83;;;8.40;85.50;;;;;;5078340;28;20103;-62
2021/12/23 10:26:47;;;;;;;26.50;15.95;;;8.50;85.80;;;;;;5082039;28;20036;-61
2021/12/23 10:38:25;;;;;;;18.65;12.77;;;9.10;84.70;;;;;;5077875;28;20043;-60
2021/12/23 10:40:54;;;;;;;22.48;16.45;;;9.10;84.60;;;;;;5085167;28;20024;-60
2021/12/23 10:43:26;;;;;;;16.98;12.35;;;9.10;84.60;;;;;;5080886;28;20390;-61
2021/12/23 10:45:58;;;;;;;15.82;12.68;;;9.20;84.60;;;;;;5081070;28;20024;-63
2021/12/23 10:48:31;;;;;;;15.98;13.15;;;9.30;84.40;;;;;;5079713;28;20432;-63
2021/12/23 10:51:08;;;;;;;16.38;11.07;;;9.30;83.80;;;;;;5077046;28;20028;-61
2021/12/23 10:59:19;;;;;;;31.30;20.60;;;9.30;80.20;;;;;;5079156;28;20108;-62
2021/12/23 11:02:13;;;;;;;30.92;21.83;;;9.20;80.00;;;;;;5073188;28;20259;-61
2021/12/23 11:05:19;;;;;;;25.02;18.38;;;9.10;80.00;;;;;;5078169;28;20058;-64
2021/12/23 11:37:04;;;;;;;39.03;27.17;;;9.30;81.10;;;;;;5082215;28;20507;-61
2021/12/23 11:41:51;;;;;;;32.85;22.15;;;9.20;81.30;;;;;;5079600;28;20075;-64
2021/12/23 11:44:17;;;;;;;33.50;24.63;;;9.20;81.50;;;;;;5075752;28;20032;-63
2021/12/23 11:46:48;;;;;;;31.25;23.52;;;9.20;81.70;;;;;;5073688;28;20492;-63
2021/12/23 11:49:16;;;;;;;31.58;21.45;;;9.30;81.70;;;;;;5077396;28;20028;-63
2021/12/23 11:54:18;;;;;;;29.20;21.15;;;9.30;83.20;;;;;;5078089;28;20100;-62
2021/12/23 11:56:47;;;;;;;29.23;20.55;;;9.30;82.70;;;;;;5075964;28;20020;-63
2021/12/23 11:59:15;;;;;;;24.42;17.38;;;9.40;82.50;;;;;;5080495;28;20032;-64
2021/12/23 12:01:44;;;;;;;21.10;13.55;;;9.40;82.90;;;;;;5079289;28;20032;-60
2021/12/23 12:04:13;;;;;;;20.00;14.75;;;10.10;85.50;;;;;;5073411;28;20047;-63
2021/12/23 12:06:47;;;;;;;27.48;20.27;;;10.60;84.60;;;;;;5078043;28;20497;-60
2021/12/23 12:09:17;;;;;;;21.58;11.40;;;10.70;81.00;;;;;;5080910;28;20319;-61
2021/12/23 12:12:05;;;;;;;26.08;20.48;;;10.70;84.40;;;;;;5076020;28;20027;-62
2021/12/23 12:14:36;;;;;;;28.52;18.50;;;10.40;80.90;;;;;;5074852;28;20039;-72
2021/12/23 12:17:24;;;;;;;22.27;16.73;;;10.30;81.80;;;;;;5079094;28;20043;-68
2021/12/23 12:20:13;;;;;;;20.52;16.45;;;10.40;83.50;;;;;;5079468;28;20031;-61
2021/12/23 12:22:56;;;;;;;20.33;12.88;;;10.40;83.80;;;;;;5071628;28;20463;-61
2021/12/23 12:25:24;;;;;;;19.50;14.48;;;10.50;84.20;;;;;;5071062;28;20113;-60
2021/12/23 12:27:56;;;;;;;22.55;12.43;;;10.50;84.30;;;;;;5071033;28;20029;-60
2021/12/23 12:30:54;;;;;;;19.33;11.95;;;10.50;84.30;;;;;;5078632;28;20029;-72
2021/12/23 12:33:25;;;;;;;20.48;14.00;;;10.60;83.60;;;;;;5063436;28;20063;-66
2021/12/23 12:36:06;;;;;;;21.77;12.93;;;10.60;83.30;;;;;;5086178;28;20028;-61
2021/12/23 12:38:45;;;;;;;18.13;12.38;;;10.70;83.70;;;;;;5080120;28;20024;-71
2021/12/23 12:41:26;;;;;;;20.77;12.65;;;10.80;83.70;;;;;;5072941;28;20013;-73
2021/12/23 12:44:03;;;;;;;20.63;14.30;;;10.80;83.90;;;;;;5075634;28;20086;-73
2021/12/23 12:46:35;;;;;;;23.38;13.88;;;10.80;84.00;;;;;;5087278;28;20017;-59
2021/12/23 12:49:17;;;;;;;17.77;13.20;;;10.90;84.20;;;;;;5077162;28;20413;-62
2021/12/23 12:51:46;;;;;;;20.20;13.85;;;11.00;83.40;;;;;;5085570;28;20107;-62
2021/12/23 12:54:16;;;;;;;20.23;13.80;;;11.10;83.00;;;;;;5084117;28;20028;-62
2021/12/23 12:56:46;;;;;;;17.70;13.23;;;11.20;82.30;;;;;;5088246;28;20020;-61
2021/12/23 12:59:14;;;;;;;24.42;13.15;;;11.30;82.40;;;;;;5082897;28;20386;-59
2021/12/23 13:01:45;;;;;;;18.33;13.23;;;11.40;82.20;;;;;;5077744;28;20378;-61
2021/12/23 13:04:34;;;;;;;16.65;13.15;;;11.40;81.80;;;;;;5090249;28;20373;-60
2021/12/23 13:07:40;;;;;;;20.95;12.23;;;11.50;81.30;;;;;;5080653;28;20039;-69
2021/12/23 13:10:18;;;;;;;17.80;14.15;;;11.50;81.00;;;;;;5021943;28;20086;-75
2021/12/23 13:12:57;;;;;;;17.20;13.63;;;11.50;80.80;;;;;;5078296;28;20040;-73
2021/12/23 13:15:41;;;;;;;22.05;13.43;;;11.60;80.50;;;;;;5085685;28;20028;-60
2021/12/23 13:18:25;;;;;;;18.75;12.90;;;11.60;80.20;;;;;;5081730;28;20043;-60
2021/12/23 13:20:55;;;;;;;18.80;14.07;;;11.70;79.60;;;;;;5079790;28;20028;-61
2021/12/23 13:23:43;;;;;;;19.55;14.73;;;11.60;79.40;;;;;;5080842;28;20033;-59
2021/12/23 13:26:19;;;;;;;21.05;14.00;;;11.70;79.10;;;;;;5074498;28;20038;-66
2021/12/23 13:28:52;;;;;;;19.42;13.48;;;11.80;78.70;;;;;;5081090;28;20029;-74
2021/12/23 13:31:21;;;;;;;19.00;14.02;;;11.80;78.30;;;;;;5079722;28;20017;-69
2021/12/23 13:33:46;;;;;;;16.15;13.18;;;11.90;78.10;;;;;;5082134;28;20020;-66
2021/12/23 13:36:19;;;;;;;18.98;13.00;;;12.00;78.10;;;;;;5079804;28;20098;-70
2021/12/23 13:38:45;;;;;;;18.58;13.02;;;12.00;78.10;;;;;;5083408;28;20036;-69
2021/12/23 13:41:17;;;;;;;15.98;12.25;;;12.00;78.50;;;;;;5083549;28;20021;-58
2021/12/23 13:43:43;;;;;;;18.35;14.43;;;11.90;78.80;;;;;;5076682;28;20478;-60
2021/12/23 13:46:09;;;;;;;20.23;14.95;;;11.80;78.60;;;;;;5083486;28;20056;-61
2021/12/23 13:48:55;;;;;;;22.55;16.15;;;11.80;78.80;;;;;;5080493;28;20079;-61
2021/12/23 13:51:23;;;;;;;20.88;16.67;;;11.80;78.50;;;;;;5080550;28;20031;-58
2021/12/23 13:54:04;;;;;;;26.52;18.40;;;11.70;78.90;;;;;;5088009;28;20016;-59
2021/12/23 13:56:32;;;;;;;28.50;20.55;;;11.70;79.00;;;;;;5079711;28;20496;-58